createdAt,value
2016-10-10T00:00:00.658Z,6.84
2016-10-10T00:01:01.324Z,6.79
2016-10-10T00:02:02.016Z,6.81
2016-10-10T00:03:02.668Z,6.82
2016-10-10T00:04:03.334Z,6.77
2016-10-10T00:05:04.011Z,6.78
2016-10-10T00:06:04.670Z,6.84
2016-10-10T00:07:05.349Z,6.79
2016-10-10T00:08:06.005Z,6.87
2016-10-10T00:09:06.674Z,6.79
2016-10-10T00:10:07.334Z,6.77
2016-10-10T00:11:07.998Z,6.78
2016-10-10T00:12:08.671Z,6.84
2016-10-10T00:13:09.327Z,6.84
2016-10-10T00:14:09.974Z,6.93
2016-10-10T00:15:10.650Z,6.88
2016-10-10T00:16:11.312Z,6.88
2016-10-10T00:17:11.963Z,6.89
2016-10-10T00:18:12.658Z,6.87
2016-10-10T00:19:13.329Z,6.93
2016-10-10T00:20:13.984Z,6.93
2016-10-10T00:21:14.639Z,6.88
2016-10-10T00:22:15.305Z,6.88
2016-10-10T00:23:15.978Z,6.88
2016-10-10T00:24:16.645Z,6.81
2016-10-10T00:25:17.323Z,6.85
2016-10-10T00:26:18.009Z,6.84
2016-10-10T00:27:18.675Z,6.74
2016-10-10T00:28:19.340Z,6.78
2016-10-10T00:29:20.012Z,6.72
2016-10-10T00:30:20.690Z,6.72
2016-10-10T00:31:21.354Z,6.72
2016-10-10T00:32:22.020Z,6.7
2016-10-10T00:33:22.683Z,6.57
2016-10-10T00:34:23.345Z,6.63
2016-10-10T00:35:24.003Z,6.56
2016-10-10T00:36:24.666Z,6.49
2016-10-10T00:37:25.334Z,6.52
2016-10-10T00:38:25.979Z,6.54
2016-10-10T00:39:26.640Z,6.57
2016-10-10T00:40:27.299Z,6.52
2016-10-10T00:41:27.975Z,6.48
2016-10-10T00:42:28.647Z,6.49
2016-10-10T00:43:29.303Z,6.48
2016-10-10T00:44:29.990Z,6.51
2016-10-10T00:45:30.662Z,6.42
2016-10-10T00:46:31.332Z,6.46
2016-10-10T00:47:31.989Z,6.45
2016-10-10T00:48:32.676Z,6.45
2016-10-10T00:49:33.352Z,6.41
2016-10-10T00:50:34.034Z,6.38
2016-10-10T00:51:34.708Z,6.45
2016-10-10T00:52:35.366Z,6.52
2016-10-10T00:53:36.019Z,6.49
2016-10-10T00:54:36.690Z,6.52
2016-10-10T00:55:37.357Z,6.54
2016-10-10T00:56:38.016Z,6.52
2016-10-10T00:57:38.677Z,6.51
2016-10-10T00:58:39.334Z,6.54
2016-10-10T00:59:40.003Z,6.49
2016-10-10T01:00:40.671Z,6.54
2016-10-10T01:01:41.344Z,6.48
2016-10-10T01:02:42.015Z,6.52
2016-10-10T01:03:42.668Z,6.48
2016-10-10T01:04:43.335Z,6.45
2016-10-10T01:05:44.009Z,6.28
2016-10-10T01:06:44.701Z,6.28
2016-10-10T01:07:45.352Z,6.31
2016-10-10T01:08:46.016Z,6.45
2016-10-10T01:09:46.669Z,6.28
2016-10-10T01:10:47.324Z,6.36
2016-10-10T01:11:48.034Z,6.36
2016-10-10T01:12:48.698Z,6.41
2016-10-10T01:13:49.360Z,6.3
2016-10-10T01:14:50.013Z,6.33
2016-10-10T01:15:50.680Z,6.33
2016-10-10T01:16:51.345Z,6.36
2016-10-10T01:17:52.023Z,6.22
2016-10-10T01:18:52.685Z,6.26
2016-10-10T01:19:53.348Z,6.3
2016-10-10T01:20:54.019Z,6.38
2016-10-10T01:21:54.694Z,6.41
2016-10-10T01:22:55.357Z,6.41
2016-10-10T01:23:56.033Z,6.36
2016-10-10T01:24:56.704Z,6.42
2016-10-10T01:25:57.380Z,6.48
2016-10-10T01:26:58.051Z,6.44
2016-10-10T01:27:58.703Z,6.42
2016-10-10T01:28:59.399Z,6.54
2016-10-10T01:30:00.067Z,6.56
2016-10-10T01:31:00.746Z,6.54
2016-10-10T01:32:01.411Z,6.49
2016-10-10T01:33:02.086Z,6.52
2016-10-10T01:34:02.756Z,6.46
2016-10-10T01:35:03.431Z,6.51
2016-10-10T01:36:04.099Z,6.6
2016-10-10T01:37:04.776Z,6.56
2016-10-10T01:38:05.447Z,6.51
2016-10-10T01:39:06.118Z,6.63
2016-10-10T01:40:06.785Z,6.57
2016-10-10T01:41:07.442Z,6.51
2016-10-10T01:42:08.132Z,6.59
2016-10-10T01:43:08.802Z,6.51
2016-10-10T01:44:09.459Z,6.59
2016-10-10T01:45:10.115Z,6.56
2016-10-10T01:46:10.773Z,6.57
2016-10-10T01:47:11.439Z,6.56
2016-10-10T01:48:12.090Z,6.56
2016-10-10T01:49:12.755Z,6.66
2016-10-10T01:50:13.405Z,6.51
2016-10-10T01:51:14.104Z,6.56
2016-10-10T01:52:14.764Z,6.57
2016-10-10T01:53:15.421Z,6.59
2016-10-10T01:54:16.120Z,6.66
2016-10-10T01:55:16.784Z,6.66
2016-10-10T01:56:17.439Z,6.78
2016-10-10T01:57:18.119Z,6.67
2016-10-10T01:58:18.786Z,6.78
2016-10-10T01:59:19.487Z,6.75
2016-10-10T02:00:20.150Z,6.81
2016-10-10T02:01:20.808Z,6.84
2016-10-10T02:02:21.476Z,6.75
2016-10-10T02:03:22.126Z,6.81
2016-10-10T02:04:22.821Z,6.89
2016-10-10T02:05:23.487Z,6.89
2016-10-10T02:06:24.165Z,6.93
2016-10-10T02:07:24.834Z,6.89
2016-10-10T02:08:25.506Z,6.89
2016-10-10T02:09:26.184Z,6.89
2016-10-10T02:10:26.854Z,7
2016-10-10T02:11:27.531Z,6.95
2016-10-10T02:12:28.188Z,6.92
2016-10-10T02:13:28.867Z,6.97
2016-10-10T02:14:29.544Z,6.99
2016-10-10T02:15:30.222Z,7
2016-10-10T02:16:30.894Z,6.96
2016-10-10T02:17:31.557Z,6.95
2016-10-10T02:18:32.226Z,6.96
2016-10-10T02:19:32.873Z,7
2016-10-10T02:20:33.528Z,7.02
2016-10-10T02:21:34.198Z,7.06
2016-10-10T02:22:34.869Z,7.07
2016-10-10T02:23:35.543Z,7.06
2016-10-10T02:24:36.214Z,7.07
2016-10-10T02:25:36.891Z,7.11
2016-10-10T02:26:37.549Z,7.15
2016-10-10T02:27:38.265Z,7.11
2016-10-10T02:28:38.959Z,7.06
2016-10-10T02:29:39.625Z,7.11
2016-10-10T02:30:40.304Z,7.17
2016-10-10T02:31:40.969Z,7.2
2016-10-10T02:32:41.644Z,7.18
2016-10-10T02:33:42.314Z,7.18
2016-10-10T02:34:42.987Z,7.2
2016-10-10T02:35:43.669Z,7.32
2016-10-10T02:36:44.333Z,7.17
2016-10-10T02:37:45.001Z,7.2
2016-10-10T02:38:45.674Z,7.17
2016-10-10T02:39:46.351Z,7.18
2016-10-10T02:40:47.018Z,7.17
2016-10-10T02:41:47.708Z,7.18
2016-10-10T02:42:48.378Z,7.13
2016-10-10T02:43:49.037Z,7.1
2016-10-10T02:44:49.712Z,7.11
2016-10-10T02:45:50.382Z,7.17
2016-10-10T02:46:51.066Z,7.06
2016-10-10T02:47:51.726Z,7.07
2016-10-10T02:48:52.377Z,6.97
2016-10-10T02:49:53.032Z,7.05
2016-10-10T02:50:53.679Z,7.1
2016-10-10T02:51:54.324Z,7.15
2016-10-10T02:52:54.991Z,7.07
2016-10-10T02:53:55.655Z,7.14
2016-10-10T02:54:56.310Z,7.13
2016-10-10T02:55:57.001Z,7.17
2016-10-10T02:56:57.658Z,7.15
2016-10-10T02:57:58.318Z,7.25
2016-10-10T02:58:58.966Z,7.25
2016-10-10T02:59:59.645Z,7.24
2016-10-10T03:01:00.313Z,7.17
2016-10-10T03:02:00.979Z,7.21
2016-10-10T03:03:01.657Z,7.28
2016-10-10T03:04:02.333Z,7.32
2016-10-10T03:05:02.998Z,7.25
2016-10-10T03:06:03.682Z,7.29
2016-10-10T03:07:04.343Z,7.24
2016-10-10T03:08:05.002Z,7.33
2016-10-10T03:09:05.658Z,7.23
2016-10-10T03:10:06.322Z,7.25
2016-10-10T03:11:06.984Z,7.35
2016-10-10T03:12:07.655Z,7.29
2016-10-10T03:13:08.335Z,7.24
2016-10-10T03:14:09.060Z,7.25
2016-10-10T03:15:09.723Z,7.2
2016-10-10T03:16:10.400Z,7.25
2016-10-10T03:17:11.065Z,7.29
2016-10-10T03:18:11.721Z,7.29
2016-10-10T03:19:12.382Z,7.28
2016-10-10T03:20:13.048Z,7.28
2016-10-10T03:21:13.720Z,7.28
2016-10-10T03:22:14.392Z,7.29
2016-10-10T03:23:15.057Z,7.15
2016-10-10T03:24:15.726Z,7.21
2016-10-10T03:25:16.397Z,7.25
2016-10-10T03:26:17.073Z,7.31
2016-10-10T03:27:17.747Z,7.32
2016-10-10T03:28:18.432Z,7.24
2016-10-10T03:29:19.092Z,7.29
2016-10-10T03:30:19.755Z,7.24
2016-10-10T03:31:20.437Z,7.24
2016-10-10T03:32:21.113Z,7.25
2016-10-10T03:33:21.783Z,7.33
2016-10-10T03:34:22.450Z,7.24
2016-10-10T03:35:23.124Z,7.28
2016-10-10T03:36:23.804Z,7.28
2016-10-10T03:37:24.485Z,7.28
2016-10-10T03:38:25.146Z,7.24
2016-10-10T03:39:25.816Z,7.29
2016-10-10T03:40:26.499Z,7.21
2016-10-10T03:41:27.166Z,7.28
2016-10-10T03:42:27.829Z,7.2
2016-10-10T03:43:28.505Z,7.23
2016-10-10T03:44:29.174Z,7.32
2016-10-10T03:45:29.849Z,7.23
2016-10-10T03:46:30.523Z,7.24
2016-10-10T03:47:31.192Z,7.25
2016-10-10T03:48:31.863Z,7.32
2016-10-10T03:49:32.536Z,7.29
2016-10-10T03:50:33.209Z,7.31
2016-10-10T03:51:33.881Z,7.32
2016-10-10T03:52:34.555Z,7.29
2016-10-10T03:53:35.226Z,7.35
2016-10-10T03:54:35.892Z,7.38
2016-10-10T03:55:36.580Z,7.32
2016-10-10T03:56:37.240Z,7.29
2016-10-10T03:57:37.917Z,7.29
2016-10-10T03:58:38.594Z,7.25
2016-10-10T03:59:39.284Z,7.35
2016-10-10T04:00:39.940Z,7.25
2016-10-10T04:01:40.611Z,7.25
2016-10-10T04:02:41.277Z,7.29
2016-10-10T04:03:42.017Z,7.28
2016-10-10T04:04:43.335Z,7.25
2016-10-10T04:05:43.999Z,7.35
2016-10-10T04:06:44.694Z,7.33
2016-10-10T04:07:45.372Z,7.36
2016-10-10T04:08:46.097Z,7.39
2016-10-10T04:09:46.794Z,7.28
2016-10-10T04:10:47.499Z,7.32
2016-10-10T04:11:48.174Z,7.42
2016-10-10T04:12:49.579Z,7.32
2016-10-10T04:13:50.301Z,7.29
2016-10-10T04:14:50.977Z,7.39
2016-10-10T04:15:51.664Z,7.36
2016-10-10T04:16:52.352Z,7.43
2016-10-10T04:17:53.059Z,7.4
2016-10-10T04:18:53.735Z,7.39
2016-10-10T04:19:54.379Z,7.39
2016-10-10T04:20:55.071Z,7.38
2016-10-10T04:21:55.820Z,7.43
2016-10-10T04:22:56.493Z,7.47
2016-10-10T04:23:57.180Z,7.4
2016-10-10T04:24:57.922Z,7.45
2016-10-10T04:25:58.650Z,7.43
2016-10-10T04:26:59.323Z,7.45
2016-10-10T04:28:00.010Z,7.48
2016-10-10T04:29:00.675Z,7.43
2016-10-10T04:30:01.331Z,7.43
2016-10-10T04:31:02.005Z,7.45
2016-10-10T04:32:02.694Z,7.42
2016-10-10T04:33:03.357Z,7.45
2016-10-10T04:34:04.028Z,7.48
2016-10-10T04:35:04.679Z,7.5
2016-10-10T04:36:05.347Z,7.53
2016-10-10T04:37:06.005Z,7.51
2016-10-10T04:38:06.662Z,7.53
2016-10-10T04:39:07.332Z,7.5
2016-10-10T04:40:07.985Z,7.57
2016-10-10T04:41:08.659Z,7.57
2016-10-10T04:42:09.333Z,7.54
2016-10-10T04:43:10.005Z,7.58
2016-10-10T04:44:10.680Z,7.58
2016-10-10T04:45:11.360Z,7.57
2016-10-10T04:46:12.017Z,7.58
2016-10-10T04:47:12.690Z,7.57
2016-10-10T04:48:13.367Z,7.7
2016-10-10T04:49:14.038Z,7.63
2016-10-10T04:50:14.711Z,7.69
2016-10-10T04:51:15.393Z,7.69
2016-10-10T04:52:16.057Z,7.67
2016-10-10T04:53:16.733Z,7.69
2016-10-10T04:54:17.411Z,7.67
2016-10-10T04:55:18.071Z,7.63
2016-10-10T04:56:18.744Z,7.67
2016-10-10T04:57:19.442Z,7.66
2016-10-10T04:58:20.114Z,7.66
2016-10-10T04:59:20.813Z,7.76
2016-10-10T05:00:21.480Z,7.75
2016-10-10T05:01:22.133Z,7.73
2016-10-10T05:02:22.799Z,7.76
2016-10-10T05:03:23.465Z,7.87
2016-10-10T05:04:24.122Z,7.8
2016-10-10T05:05:24.790Z,7.76
2016-10-10T05:06:25.436Z,7.88
2016-10-10T05:07:26.090Z,7.72
2016-10-10T05:08:26.756Z,7.87
2016-10-10T05:09:27.407Z,7.85
2016-10-10T05:10:28.077Z,7.8
2016-10-10T05:11:28.744Z,7.87
2016-10-10T05:12:29.407Z,7.91
2016-10-10T05:13:30.066Z,7.88
2016-10-10T05:14:30.754Z,7.9
2016-10-10T05:15:31.415Z,7.87
2016-10-10T05:16:32.103Z,7.85
2016-10-10T05:17:32.761Z,7.88
2016-10-10T05:18:33.435Z,7.93
2016-10-10T05:19:34.101Z,7.88
2016-10-10T05:20:34.787Z,7.85
2016-10-10T05:21:35.445Z,7.9
2016-10-10T05:22:36.118Z,7.87
2016-10-10T05:23:36.792Z,7.94
2016-10-10T05:24:37.460Z,7.93
2016-10-10T05:25:38.299Z,7.9
2016-10-10T05:26:38.964Z,7.85
2016-10-10T05:27:39.630Z,7.88
2016-10-10T05:28:40.304Z,7.95
2016-10-10T05:29:41.175Z,7.82
2016-10-10T05:30:41.964Z,7.77
2016-10-10T05:31:42.742Z,7.82
2016-10-10T05:32:43.564Z,7.85
2016-10-10T05:33:44.231Z,7.87
2016-10-10T05:34:44.915Z,7.83
2016-10-10T05:35:45.576Z,7.8
2016-10-10T05:36:46.254Z,7.79
2016-10-10T05:37:46.922Z,7.87
2016-10-10T05:38:47.634Z,7.94
2016-10-10T05:39:48.293Z,7.85
2016-10-10T05:40:48.950Z,7.88
2016-10-10T05:41:49.688Z,7.91
2016-10-10T05:42:50.408Z,7.97
2016-10-10T05:43:51.067Z,7.97
2016-10-10T05:44:51.732Z,7.97
2016-10-10T05:45:52.392Z,7.98
2016-10-10T05:46:53.059Z,7.93
2016-10-10T05:47:53.721Z,7.97
2016-10-10T05:48:54.382Z,7.98
2016-10-10T05:49:55.040Z,8.01
2016-10-10T05:50:55.707Z,8.06
2016-10-10T05:51:56.377Z,7.98
2016-10-10T05:52:57.064Z,8.01
2016-10-10T05:53:57.724Z,7.94
2016-10-10T05:54:58.383Z,7.94
2016-10-10T05:55:59.062Z,8.03
2016-10-10T05:56:59.819Z,8.08
2016-10-10T05:58:00.523Z,8.09
2016-10-10T05:59:01.196Z,8.05
2016-10-10T06:00:01.882Z,8.12
2016-10-10T06:01:02.572Z,8.15
2016-10-10T06:02:03.275Z,8.1
2016-10-10T06:03:03.939Z,8.1
2016-10-10T06:04:04.604Z,8.12
2016-10-10T06:05:05.295Z,8.1
2016-10-10T06:06:05.954Z,8.06
2016-10-10T06:07:06.627Z,8.13
2016-10-10T06:08:07.293Z,8.19
2016-10-10T06:09:07.962Z,8.24
2016-10-10T06:10:08.637Z,8.23
2016-10-10T06:11:09.333Z,8.13
2016-10-10T06:12:09.997Z,8.2
2016-10-10T06:13:10.662Z,8.31
2016-10-10T06:14:11.513Z,8.27
2016-10-10T06:15:12.328Z,8.33
2016-10-10T06:16:13.061Z,8.3
2016-10-10T06:17:13.929Z,8.3
2016-10-10T06:18:14.676Z,8.3
2016-10-10T06:19:15.683Z,8.27
2016-10-10T06:20:16.474Z,8.31
2016-10-10T06:21:17.283Z,8.27
2016-10-10T06:22:18.060Z,8.28
2016-10-10T06:23:18.820Z,8.28
2016-10-10T06:24:19.612Z,8.27
2016-10-10T06:25:20.362Z,8.28
2016-10-10T06:26:21.057Z,8.3
2016-10-10T06:27:21.859Z,8.3
2016-10-10T06:28:22.649Z,8.26
2016-10-10T06:29:23.429Z,8.3
2016-10-10T06:30:24.156Z,8.26
2016-10-10T06:31:24.954Z,8.31
2016-10-10T06:32:25.676Z,8.3
2016-10-10T06:33:26.384Z,8.34
2016-10-10T06:34:27.133Z,8.26
2016-10-10T06:35:27.909Z,8.3
2016-10-10T06:36:28.651Z,8.33
2016-10-10T06:37:29.404Z,8.33
2016-10-10T06:38:30.191Z,8.36
2016-10-10T06:39:30.954Z,8.33
2016-10-10T06:40:31.691Z,8.27
2016-10-10T06:41:32.497Z,8.28
2016-10-10T06:42:33.219Z,8.33
2016-10-10T06:43:34.051Z,8.26
2016-10-10T06:44:34.744Z,8.34
2016-10-10T06:45:35.476Z,8.37
2016-10-10T06:46:36.167Z,8.38
2016-10-10T06:47:36.950Z,8.38
2016-10-10T06:48:37.750Z,8.38
2016-10-10T06:49:38.520Z,8.38
2016-10-10T06:50:39.220Z,8.41
2016-10-10T06:51:39.959Z,8.49
2016-10-10T06:52:40.723Z,8.46
2016-10-10T06:53:41.475Z,8.48
2016-10-10T06:54:42.178Z,8.52
2016-10-10T06:55:42.941Z,8.48
2016-10-10T06:56:43.675Z,8.58
2016-10-10T06:57:44.449Z,8.58
2016-10-10T06:58:45.206Z,8.66
2016-10-10T06:59:45.955Z,8.61
2016-10-10T07:00:46.704Z,8.7
2016-10-10T07:01:47.432Z,8.67
2016-10-10T07:02:48.210Z,8.67
2016-10-10T07:03:48.997Z,8.67
2016-10-10T07:04:49.787Z,8.69
2016-10-10T07:05:50.567Z,8.66
2016-10-10T07:06:51.362Z,8.63
2016-10-10T07:07:52.157Z,8.66
2016-10-10T07:08:52.907Z,8.67
2016-10-10T07:09:53.643Z,8.6
2016-10-10T07:10:54.419Z,8.76
2016-10-10T07:11:55.166Z,8.73
2016-10-10T07:12:55.980Z,8.76
2016-10-10T07:13:56.721Z,8.71
2016-10-10T07:14:57.536Z,8.73
2016-10-10T07:15:58.361Z,8.7
2016-10-10T07:16:59.129Z,8.7
2016-10-10T07:17:59.901Z,8.79
2016-10-10T07:19:00.646Z,8.74
2016-10-10T07:20:01.446Z,8.74
2016-10-10T07:21:02.206Z,8.79
2016-10-10T07:22:03.020Z,8.79
2016-10-10T07:23:03.806Z,8.82
2016-10-10T07:24:04.544Z,8.88
2016-10-10T07:25:05.250Z,8.95
2016-10-10T07:26:05.927Z,8.89
2016-10-10T07:27:06.630Z,8.94
2016-10-10T07:28:07.353Z,8.97
2016-10-10T07:29:08.044Z,8.94
2016-10-10T07:30:08.815Z,8.88
2016-10-10T07:31:09.498Z,9.02
2016-10-10T07:32:10.189Z,9.08
2016-10-10T07:33:10.897Z,9.04
2016-10-10T07:34:11.600Z,9.06
2016-10-10T07:35:12.358Z,9.19
2016-10-10T07:36:13.108Z,9.21
2016-10-10T07:37:13.748Z,9.19
2016-10-10T07:38:14.482Z,9.29
2016-10-10T07:39:15.176Z,9.31
2016-10-10T07:40:15.888Z,9.29
2016-10-10T07:41:16.621Z,9.31
2016-10-10T07:42:17.366Z,9.39
2016-10-10T07:43:18.083Z,9.26
2016-10-10T07:44:18.775Z,9.36
2016-10-10T07:45:19.517Z,9.43
2016-10-10T07:46:20.230Z,9.5
2016-10-10T07:47:20.981Z,9.55
2016-10-10T07:48:21.765Z,9.48
2016-10-10T07:49:22.444Z,9.47
2016-10-10T07:50:23.131Z,9.48
2016-10-10T07:51:23.857Z,9.48
2016-10-10T07:52:24.584Z,9.46
2016-10-10T07:53:25.280Z,9.46
2016-10-10T07:54:26.001Z,9.51
2016-10-10T07:55:26.700Z,9.51
2016-10-10T07:56:27.445Z,9.51
2016-10-10T07:57:28.165Z,9.65
2016-10-10T07:58:28.902Z,9.65
2016-10-10T07:59:29.631Z,9.66
2016-10-10T08:00:30.376Z,9.72
2016-10-10T08:01:31.074Z,9.84
2016-10-10T08:02:31.889Z,9.8
2016-10-10T08:03:32.619Z,9.89
2016-10-10T08:04:33.474Z,9.86
2016-10-10T08:05:34.359Z,9.87
2016-10-10T08:06:35.142Z,9.94
2016-10-10T08:07:35.871Z,9.86
2016-10-10T08:08:36.570Z,9.98
2016-10-10T08:09:37.280Z,9.99
2016-10-10T08:10:38.009Z,10.01
2016-10-10T08:11:38.806Z,9.98
2016-10-10T08:12:39.555Z,10.09
2016-10-10T08:13:40.261Z,10.01
2016-10-10T08:14:40.993Z,10.07
2016-10-10T08:15:41.657Z,10.07
2016-10-10T08:16:42.413Z,10.12
2016-10-10T08:17:43.096Z,10.12
2016-10-10T08:18:43.846Z,10.13
2016-10-10T08:19:44.547Z,10.13
2016-10-10T08:20:45.249Z,10.23
2016-10-10T08:21:45.960Z,10.3
2016-10-10T08:22:46.708Z,10.19
2016-10-10T08:23:47.486Z,10.33
2016-10-10T08:24:48.204Z,10.3
2016-10-10T08:25:48.946Z,10.28
2016-10-10T08:26:49.642Z,10.31
2016-10-10T08:27:50.324Z,10.3
2016-10-10T08:28:51.045Z,10.31
2016-10-10T08:29:51.786Z,10.3
2016-10-10T08:30:52.531Z,10.31
2016-10-10T08:31:53.297Z,10.31
2016-10-10T08:32:54.050Z,10.41
2016-10-10T08:33:54.767Z,10.53
2016-10-10T08:34:55.658Z,10.54
2016-10-10T08:35:56.385Z,10.59
2016-10-10T08:36:57.160Z,10.61
2016-10-10T08:37:57.860Z,10.67
2016-10-10T08:38:58.596Z,10.63
2016-10-10T08:39:59.390Z,10.68
2016-10-10T08:41:00.200Z,10.67
2016-10-10T08:42:01.012Z,10.68
2016-10-10T08:43:01.721Z,10.72
2016-10-10T08:44:02.438Z,10.74
2016-10-10T08:45:03.164Z,10.81
2016-10-10T08:46:03.927Z,10.74
2016-10-10T08:47:04.651Z,10.79
2016-10-10T08:48:05.396Z,10.81
2016-10-10T08:49:06.159Z,10.78
2016-10-10T08:50:07.002Z,10.79
2016-10-10T08:51:07.791Z,10.84
2016-10-10T08:52:08.558Z,10.78
2016-10-10T08:53:09.615Z,10.81
2016-10-10T08:54:10.643Z,10.75
2016-10-10T08:55:11.477Z,10.82
2016-10-10T08:56:12.231Z,10.86
2016-10-10T08:57:13.025Z,10.82
2016-10-10T08:58:13.761Z,10.82
2016-10-10T08:59:14.473Z,10.74
2016-10-10T09:00:15.258Z,10.79
2016-10-10T09:01:15.989Z,10.71
2016-10-10T09:02:16.852Z,10.76
2016-10-10T09:03:17.653Z,10.89
2016-10-10T09:04:18.489Z,10.89
2016-10-10T09:05:19.240Z,10.87
2016-10-10T09:06:20.081Z,10.93
2016-10-10T09:07:20.952Z,10.89
2016-10-10T09:08:21.808Z,10.93
2016-10-10T09:09:22.764Z,10.9
2016-10-10T09:10:23.427Z,10.89
2016-10-10T09:11:24.186Z,10.97
2016-10-10T09:12:24.936Z,11.05
2016-10-10T09:13:25.691Z,11.08
2016-10-10T09:14:26.601Z,11.1
2016-10-10T09:15:27.431Z,11.05
2016-10-10T09:16:28.258Z,11.11
2016-10-10T09:17:29.153Z,11.23
2016-10-10T09:18:29.998Z,11.22
2016-10-10T09:19:31.036Z,11.27
2016-10-10T09:20:31.910Z,11.29
2016-10-10T09:21:32.841Z,11.33
2016-10-10T09:22:33.718Z,11.35
2016-10-10T09:23:34.513Z,11.37
2016-10-10T09:24:35.238Z,11.33
2016-10-10T09:25:36.142Z,11.44
2016-10-10T09:26:37.725Z,11.47
2016-10-10T09:27:38.492Z,11.45
2016-10-10T09:28:39.345Z,11.52
2016-10-10T09:29:40.165Z,11.48
2016-10-10T09:30:41.044Z,11.5
2016-10-10T09:31:41.776Z,11.47
2016-10-10T09:32:42.617Z,11.47
2016-10-10T09:33:43.357Z,11.5
2016-10-10T09:34:44.143Z,11.45
2016-10-10T09:35:44.863Z,11.43
2016-10-10T09:36:45.600Z,11.5
2016-10-10T09:37:46.449Z,11.59
2016-10-10T09:38:47.182Z,11.59
2016-10-10T09:39:47.971Z,11.54
2016-10-10T09:40:48.668Z,11.44
2016-10-10T09:41:49.399Z,11.47
2016-10-10T09:42:50.151Z,11.57
2016-10-10T09:43:50.946Z,11.5
2016-10-10T09:44:51.712Z,11.52
2016-10-10T09:45:52.521Z,11.44
2016-10-10T09:46:53.252Z,11.5
2016-10-10T09:47:54.089Z,11.63
2016-10-10T09:48:54.778Z,11.57
2016-10-10T09:49:55.527Z,11.63
2016-10-10T09:50:56.347Z,11.7
2016-10-10T09:51:57.201Z,11.68
2016-10-10T09:52:58.018Z,11.65
2016-10-10T09:53:58.935Z,11.66
2016-10-10T09:54:59.757Z,11.59
2016-10-10T09:56:00.521Z,11.63
2016-10-10T09:57:01.360Z,11.63
2016-10-10T09:58:02.335Z,11.6
2016-10-10T09:59:03.082Z,11.62
2016-10-10T10:00:03.838Z,11.6
2016-10-10T10:01:04.593Z,11.51
2016-10-10T10:02:05.428Z,11.6
2016-10-10T10:03:06.113Z,11.6
2016-10-10T10:04:06.928Z,11.69
2016-10-10T10:05:07.679Z,11.69
2016-10-10T10:06:08.423Z,11.69
2016-10-10T10:07:09.266Z,11.97
2016-10-10T10:08:10.044Z,12.1
2016-10-10T10:09:10.815Z,12.12
2016-10-10T10:10:11.545Z,12.18
2016-10-10T10:11:12.339Z,12.2
2016-10-10T10:12:13.147Z,12.13
2016-10-10T10:13:13.922Z,12.18
2016-10-10T10:14:14.691Z,12.18
2016-10-10T10:15:15.497Z,12.22
2016-10-10T10:16:16.242Z,12.24
2016-10-10T10:17:17.035Z,12.27
2016-10-10T10:18:17.780Z,12.32
2016-10-10T10:19:18.517Z,12.32
2016-10-10T10:20:19.324Z,12.32
2016-10-10T10:21:20.156Z,12.27
2016-10-10T10:22:20.952Z,12.29
2016-10-10T10:23:21.712Z,12.1
2016-10-10T10:24:22.518Z,11.9
2016-10-10T10:25:23.317Z,11.97
2016-10-10T10:26:24.114Z,11.91
2016-10-10T10:27:24.953Z,11.94
2016-10-10T10:28:25.709Z,11.78
2016-10-10T10:29:26.509Z,11.87
2016-10-10T10:30:27.272Z,11.84
2016-10-10T10:31:28.186Z,11.7
2016-10-10T10:32:28.848Z,11.86
2016-10-10T10:33:29.698Z,11.69
2016-10-10T10:34:30.488Z,11.83
2016-10-10T10:35:31.307Z,11.86
2016-10-10T10:36:31.985Z,11.86
2016-10-10T10:37:32.717Z,11.9
2016-10-10T10:38:33.481Z,12
2016-10-10T10:39:34.230Z,11.9
2016-10-10T10:40:35.022Z,11.9
2016-10-10T10:41:35.772Z,11.84
2016-10-10T10:42:36.540Z,11.75
2016-10-10T10:43:37.295Z,11.88
2016-10-10T10:44:38.032Z,11.9
2016-10-10T10:45:38.801Z,11.87
2016-10-10T10:46:39.565Z,11.91
2016-10-10T10:47:40.306Z,12
2016-10-10T10:48:41.070Z,12
2016-10-10T10:49:41.815Z,11.95
2016-10-10T10:50:42.584Z,11.84
2016-10-10T10:51:43.372Z,11.77
2016-10-10T10:52:44.384Z,11.75
2016-10-10T10:53:44.972Z,11.73
2016-10-10T10:54:45.712Z,11.72
2016-10-10T10:55:46.451Z,11.83
2016-10-10T10:56:47.211Z,11.84
2016-10-10T10:57:47.928Z,11.94
2016-10-10T10:58:48.674Z,11.9
2016-10-10T10:59:49.495Z,11.97
2016-10-10T11:00:50.177Z,11.91
2016-10-10T11:01:50.937Z,12
2016-10-10T11:02:51.706Z,11.88
2016-10-10T11:03:52.470Z,11.91
2016-10-10T11:04:53.197Z,11.91
2016-10-10T11:05:53.958Z,11.91
2016-10-10T11:06:54.686Z,12
2016-10-10T11:07:55.468Z,12
2016-10-10T11:08:56.277Z,11.88
2016-10-10T11:09:57.036Z,11.84
2016-10-10T11:10:57.818Z,11.87
2016-10-10T11:11:58.581Z,11.91
2016-10-10T11:12:59.374Z,11.91
2016-10-10T11:14:00.102Z,12.02
2016-10-10T11:15:00.841Z,12.06
2016-10-10T11:16:01.614Z,12.18
2016-10-10T11:17:02.359Z,12.17
2016-10-10T11:18:03.115Z,12.1
2016-10-10T11:19:03.875Z,12.12
2016-10-10T11:20:04.675Z,12.12
2016-10-10T11:21:05.403Z,12.04
2016-10-10T11:22:06.127Z,12.13
2016-10-10T11:23:06.898Z,12.12
2016-10-10T11:24:07.651Z,12.2
2016-10-10T11:25:08.429Z,12.39
2016-10-10T11:26:09.179Z,12.4
2016-10-10T11:27:09.920Z,12.54
2016-10-10T11:28:10.680Z,12.6
2016-10-10T11:29:11.410Z,12.61
2016-10-10T11:30:12.129Z,12.67
2016-10-10T11:31:12.868Z,12.73
2016-10-10T11:32:13.693Z,12.76
2016-10-10T11:33:14.445Z,12.78
2016-10-10T11:34:15.212Z,12.82
2016-10-10T11:35:15.994Z,12.9
2016-10-10T11:36:16.750Z,12.93
2016-10-10T11:37:17.577Z,12.87
2016-10-10T11:38:18.341Z,12.79
2016-10-10T11:39:19.096Z,12.91
2016-10-10T11:40:19.910Z,12.8
2016-10-10T11:41:20.702Z,12.65
2016-10-10T11:42:21.425Z,12.53
2016-10-10T11:43:22.184Z,12.62
2016-10-10T11:44:22.894Z,12.47
2016-10-10T11:45:23.662Z,12.53
2016-10-10T11:46:24.385Z,12.5
2016-10-10T11:47:25.147Z,12.39
2016-10-10T11:48:25.866Z,12.35
2016-10-10T11:49:26.625Z,12.32
2016-10-10T11:50:27.383Z,12.22
2016-10-10T11:51:28.113Z,12.21
2016-10-10T11:52:28.868Z,12.22
2016-10-10T11:53:29.652Z,12.31
2016-10-10T11:54:30.435Z,12.21
2016-10-10T11:55:31.144Z,12.28
2016-10-10T11:56:31.863Z,12.24
2016-10-10T11:57:32.655Z,12.2
2016-10-10T11:58:33.411Z,12.22
2016-10-10T11:59:34.182Z,12.22
2016-10-10T12:00:34.932Z,12.37
2016-10-10T12:01:35.665Z,12.42
2016-10-10T12:02:36.381Z,12.37
2016-10-10T12:03:37.123Z,12.4
2016-10-10T12:04:37.859Z,12.53
2016-10-10T12:05:38.583Z,12.54
2016-10-10T12:06:39.388Z,12.53
2016-10-10T12:07:40.115Z,12.49
2016-10-10T12:08:40.925Z,12.47
2016-10-10T12:09:41.624Z,12.54
2016-10-10T12:10:42.358Z,12.5
2016-10-10T12:11:43.085Z,12.5
2016-10-10T12:12:43.791Z,12.68
2016-10-10T12:13:44.519Z,12.64
2016-10-10T12:14:45.286Z,12.67
2016-10-10T12:15:46.024Z,12.47
2016-10-10T12:16:46.757Z,12.45
2016-10-10T12:17:47.539Z,12.21
2016-10-10T12:18:48.286Z,12.24
2016-10-10T12:19:49.123Z,12.22
2016-10-10T12:20:49.826Z,12.2
2016-10-10T12:21:50.578Z,12.12
2016-10-10T12:22:51.347Z,12.02
2016-10-10T12:23:52.088Z,11.86
2016-10-10T12:24:52.841Z,11.75
2016-10-10T12:25:53.580Z,11.78
2016-10-10T12:26:54.262Z,11.86
2016-10-10T12:27:55.022Z,11.88
2016-10-10T12:28:55.807Z,11.86
2016-10-10T12:29:56.571Z,11.84
2016-10-10T12:30:57.305Z,11.83
2016-10-10T12:31:58.098Z,11.95
2016-10-10T12:32:58.831Z,11.95
2016-10-10T12:33:59.565Z,11.88
2016-10-10T12:35:00.375Z,11.95
2016-10-10T12:36:01.120Z,11.99
2016-10-10T12:37:01.836Z,12
2016-10-10T12:38:02.638Z,12.12
2016-10-10T12:39:03.367Z,12.12
2016-10-10T12:40:04.119Z,12.15
2016-10-10T12:41:04.917Z,12.15
2016-10-10T12:42:05.676Z,12.04
2016-10-10T12:43:06.392Z,12.1
2016-10-10T12:44:07.171Z,12.13
2016-10-10T12:45:07.908Z,12.17
2016-10-10T12:46:08.646Z,12.12
2016-10-10T12:47:09.364Z,12.27
2016-10-10T12:48:10.090Z,12.24
2016-10-10T12:49:10.794Z,12.21
2016-10-10T12:50:11.584Z,12.25
2016-10-10T12:51:12.330Z,12.28
2016-10-10T12:52:13.079Z,12.35
2016-10-10T12:53:13.887Z,12.35
2016-10-10T12:54:14.529Z,12.31
2016-10-10T12:55:15.291Z,12.31
2016-10-10T12:56:16.085Z,12.32
2016-10-10T12:57:16.777Z,12.32
2016-10-10T12:58:17.492Z,12.2
2016-10-10T12:59:18.241Z,12.15
2016-10-10T13:00:18.955Z,12.25
2016-10-10T13:01:19.695Z,12.22
2016-10-10T13:02:20.490Z,12.24
2016-10-10T13:03:21.271Z,12.22
2016-10-10T13:04:22.063Z,12.22
2016-10-10T13:05:22.854Z,12.24
2016-10-10T13:06:23.603Z,12.25
2016-10-10T13:07:24.345Z,12.27
2016-10-10T13:08:25.117Z,12.28
2016-10-10T13:09:25.896Z,12.25
2016-10-10T13:10:26.624Z,12.21
2016-10-10T13:11:27.445Z,12.21
2016-10-10T13:12:28.267Z,12.17
2016-10-10T13:13:29.060Z,12.03
2016-10-10T13:14:29.906Z,12.07
2016-10-10T13:15:30.621Z,12.03
2016-10-10T13:16:31.366Z,12.07
2016-10-10T13:17:32.107Z,12.06
2016-10-10T13:18:32.917Z,12.06
2016-10-10T13:19:33.714Z,12.12
2016-10-10T13:20:34.597Z,12.13